Time;durP1;ratioP1;P1;durP2;ratioP2;P2;SDS_P1;SDS_P2;PMS_P1;PMS_P2;Temp;Humidity;BMP_temperature;BMP_pressure;BME280_temperature;BME280_humidity;BME280_pressure;Samples;Min_cycle;Max_cycle;Signal;HPM_P1;HPM_P2
2022/12/04 00:02:12;;;;;;;16.75;7.72;;;1.70;99.90;;;;;;5076021;28;20402;-73
2022/12/04 00:04:38;;;;;;;22.60;8.38;;;1.70;99.90;;;;;;5058788;28;20031;-73
2022/12/04 00:07:03;;;;;;;18.75;6.85;;;1.70;99.90;;;;;;5062764;28;20097;-73
2022/12/04 00:09:29;;;;;;;23.70;9.48;;;1.70;99.90;;;;;;5078764;28;20118;-73
2022/12/04 00:11:54;;;;;;;18.15;7.57;;;1.70;99.90;;;;;;5049579;28;20040;-73
2022/12/04 00:14:20;;;;;;;22.27;8.13;;;1.70;99.90;;;;;;5071839;28;20044;-73
2022/12/04 00:16:45;;;;;;;23.35;7.25;;;1.70;99.90;;;;;;5067082;28;20509;-73
2022/12/04 00:19:11;;;;;;;17.08;8.90;;;1.70;99.90;;;;;;5065825;28;20040;-73
2022/12/04 00:21:37;;;;;;;18.77;8.00;;;1.70;99.90;;;;;;5065602;28;20063;-73
2022/12/04 00:24:03;;;;;;;18.52;6.72;;;1.70;99.90;;;;;;5076154;28;20049;-73
2022/12/04 00:26:31;;;;;;;14.63;6.43;;;1.60;99.90;;;;;;5069472;28;20028;-73
2022/12/04 00:28:58;;;;;;;22.83;6.28;;;1.60;99.90;;;;;;5070299;28;20436;-73
2022/12/04 00:31:27;;;;;;;13.75;6.38;;;1.60;99.90;;;;;;5062959;28;20039;-73
2022/12/04 00:33:53;;;;;;;11.25;5.97;;;1.70;99.90;;;;;;5076478;28;21199;-73
2022/12/04 00:36:21;;;;;;;19.85;8.38;;;1.70;99.90;;;;;;5070770;28;20118;-73
2022/12/04 00:38:47;;;;;;;25.02;8.82;;;1.60;99.90;;;;;;5072881;28;20446;-73
2022/12/04 00:41:15;;;;;;;22.80;7.93;;;1.60;99.90;;;;;;5047083;28;20033;-73
2022/12/04 00:43:41;;;;;;;15.48;7.70;;;1.60;99.90;;;;;;5048362;28;20110;-73
2022/12/04 00:46:07;;;;;;;16.05;7.05;;;1.60;99.90;;;;;;5066466;28;20048;-72
2022/12/04 00:48:33;;;;;;;19.17;7.70;;;1.60;99.90;;;;;;5069590;28;20401;-73
2022/12/04 00:51:11;;;;;;;17.05;6.78;;;1.60;99.90;;;;;;5079176;28;20031;-73
2022/12/04 00:53:38;;;;;;;13.80;6.32;;;1.60;99.90;;;;;;5062839;28;20048;-73
2022/12/04 00:56:09;;;;;;;18.02;6.07;;;1.60;99.90;;;;;;5076750;28;20047;-73
2022/12/04 00:58:35;;;;;;;23.80;7.38;;;1.60;99.90;;;;;;5059713;28;20921;-73
2022/12/04 01:01:08;;;;;;;22.20;6.47;;;1.60;99.90;;;;;;5075010;28;20115;-73
2022/12/04 01:03:34;;;;;;;14.43;6.50;;;1.60;99.90;;;;;;5071557;28;20036;-73
2022/12/04 01:06:00;;;;;;;17.77;7.00;;;1.60;99.90;;;;;;5073667;28;20046;-73
2022/12/04 01:08:26;;;;;;;15.57;6.80;;;1.60;99.90;;;;;;5078126;28;20123;-73
2022/12/04 01:10:52;;;;;;;19.33;7.25;;;1.60;99.90;;;;;;5078985;28;20114;-73
2022/12/04 01:13:17;;;;;;;21.00;8.07;;;1.60;99.90;;;;;;5052814;28;20052;-73
2022/12/04 01:15:43;;;;;;;25.13;7.38;;;1.60;99.90;;;;;;5073158;28;20137;-73
2022/12/04 01:18:13;;;;;;;19.13;8.63;;;1.60;99.90;;;;;;5077169;28;20040;-73
2022/12/04 01:20:39;;;;;;;32.55;10.00;;;1.60;99.90;;;;;;5070334;28;20598;-73
2022/12/04 01:23:05;;;;;;;18.40;7.25;;;1.60;99.90;;;;;;5064727;28;20048;-73
2022/12/04 01:25:31;;;;;;;20.75;8.50;;;1.60;99.90;;;;;;5078817;28;20449;-73
2022/12/04 01:27:57;;;;;;;25.05;7.13;;;1.60;99.90;;;;;;5074005;28;20037;-73
2022/12/04 01:30:22;;;;;;;19.27;8.65;;;1.70;99.90;;;;;;5079768;28;20782;-73
2022/12/04 01:32:49;;;;;;;15.30;6.95;;;1.70;99.90;;;;;;5061563;28;20028;-73
2022/12/04 01:35:14;;;;;;;17.20;7.60;;;1.60;99.90;;;;;;5051810;28;20547;-73
2022/12/04 01:37:40;;;;;;;18.63;8.05;;;1.60;99.90;;;;;;5076130;28;20123;-72
2022/12/04 01:40:06;;;;;;;19.00;9.00;;;1.60;99.90;;;;;;5080280;28;20036;-73
2022/12/04 01:42:32;;;;;;;22.20;8.45;;;1.60;99.90;;;;;;5057176;28;20074;-73
2022/12/04 01:45:35;;;;;;;22.48;9.02;;;1.50;99.90;;;;;;5059241;28;20495;-73
2022/12/04 01:48:25;;;;;;;26.27;7.97;;;1.60;99.90;;;;;;5069853;28;20073;-73
2022/12/04 01:50:57;;;;;;;27.40;8.13;;;1.60;99.90;;;;;;5058169;28;20450;-73
2022/12/04 01:53:22;;;;;;;20.85;8.00;;;1.60;99.90;;;;;;5074689;28;21600;-73
2022/12/04 01:55:49;;;;;;;26.25;8.73;;;1.60;99.90;;;;;;5067763;28;20067;-73
2022/12/04 01:58:19;;;;;;;19.63;9.40;;;1.60;99.90;;;;;;5081821;28;20047;-73
2022/12/04 02:00:50;;;;;;;19.58;8.43;;;1.60;99.90;;;;;;5057453;28;20606;-73
2022/12/04 02:03:16;;;;;;;20.48;7.68;;;1.60;99.90;;;;;;5068613;28;20032;-73
2022/12/04 02:05:42;;;;;;;11.25;5.15;;;1.60;99.90;;;;;;5056079;28;20119;-73
2022/12/04 02:08:09;;;;;;;15.13;7.68;;;1.60;99.90;;;;;;5080887;28;20043;-73
2022/12/04 02:10:49;;;;;;;21.95;6.93;;;1.60;99.90;;;;;;5078108;28;20047;-73
2022/12/04 02:13:29;;;;;;;31.38;9.30;;;1.60;99.90;;;;;;5067685;28;20143;-73
2022/12/04 02:16:07;;;;;;;23.42;9.88;;;1.60;99.90;;;;;;5071752;28;20052;-73
2022/12/04 02:19:05;;;;;;;18.95;7.05;;;1.60;99.90;;;;;;5058779;28;20040;-73
2022/12/04 02:21:43;;;;;;;23.55;8.80;;;1.60;99.90;;;;;;5028144;28;20048;-73
2022/12/04 02:24:51;;;;;;;21.23;8.00;;;1.60;99.90;;;;;;5055371;28;20554;-73
2022/12/04 02:27:39;;;;;;;16.80;7.70;;;1.60;99.90;;;;;;5073452;28;20039;-73
2022/12/04 02:30:07;;;;;;;20.13;7.90;;;1.60;99.90;;;;;;5070240;28;20047;-73
2022/12/04 02:32:42;;;;;;;15.98;6.53;;;1.60;99.90;;;;;;5078883;28;20051;-73
2022/12/04 02:35:20;;;;;;;20.35;9.35;;;1.60;99.90;;;;;;5074927;28;20394;-73
2022/12/04 02:38:04;;;;;;;20.15;8.23;;;1.60;99.90;;;;;;5073162;28;20039;-73
2022/12/04 02:40:59;;;;;;;25.50;9.95;;;1.60;99.90;;;;;;5078579;28;20122;-73
2022/12/04 02:43:36;;;;;;;19.70;8.43;;;1.60;99.90;;;;;;5068753;28;20132;-73
2022/12/04 02:46:05;;;;;;;28.88;8.80;;;1.60;99.90;;;;;;5072831;28;20092;-73
2022/12/04 02:48:35;;;;;;;16.60;7.10;;;1.50;99.90;;;;;;5079117;28;20043;-73
2022/12/04 02:51:02;;;;;;;20.55;8.80;;;1.50;99.90;;;;;;5077492;28;20560;-73
2022/12/04 02:53:33;;;;;;;22.88;9.15;;;1.50;99.90;;;;;;5066697;28;20044;-73
2022/12/04 02:56:03;;;;;;;20.75;7.20;;;1.50;99.90;;;;;;5073946;28;20370;-73
2022/12/04 02:58:35;;;;;;;18.85;8.95;;;1.50;99.90;;;;;;5067100;28;20506;-73
2022/12/04 03:01:18;;;;;;;24.50;10.40;;;1.40;99.90;;;;;;5074991;28;20558;-73
2022/12/04 03:04:01;;;;;;;27.02;8.60;;;1.40;99.90;;;;;;5075012;28;20039;-73
2022/12/04 03:06:31;;;;;;;24.70;8.43;;;1.40;99.90;;;;;;5067506;28;20047;-73
2022/12/04 03:09:07;;;;;;;21.70;8.50;;;1.40;99.90;;;;;;5076836;28;21827;-72
2022/12/04 03:11:37;;;;;;;24.90;12.13;;;1.40;99.90;;;;;;5077579;28;20118;-73
2022/12/04 03:14:15;;;;;;;22.95;9.75;;;1.40;99.90;;;;;;5070796;28;20055;-73
2022/12/04 03:16:41;;;;;;;18.63;9.77;;;1.40;99.90;;;;;;5071401;28;20036;-73
2022/12/04 03:19:13;;;;;;;22.17;8.65;;;1.40;99.90;;;;;;5080306;28;20036;-73
2022/12/04 03:21:46;;;;;;;20.92;9.02;;;1.40;99.90;;;;;;5080746;28;20028;-73
2022/12/04 03:24:18;;;;;;;19.58;8.68;;;1.40;99.90;;;;;;5067526;28;20134;-74
2022/12/04 03:26:50;;;;;;;21.13;9.50;;;1.30;99.90;;;;;;5078276;28;20398;-73
2022/12/04 03:29:33;;;;;;;22.67;10.50;;;1.40;99.90;;;;;;5057121;28;20033;-73
2022/12/04 03:32:10;;;;;;;22.23;9.25;;;1.30;99.90;;;;;;5065447;28;20036;-73
2022/12/04 03:35:04;;;;;;;21.95;8.45;;;1.30;99.90;;;;;;5071742;28;20252;-73
2022/12/04 03:37:36;;;;;;;23.48;9.85;;;1.30;99.90;;;;;;5059365;28;20744;-73
2022/12/04 03:40:26;;;;;;;16.52;8.57;;;1.30;99.90;;;;;;5072051;28;20756;-73
2022/12/04 03:43:03;;;;;;;22.83;9.23;;;1.30;99.90;;;;;;5041089;28;20051;-73
2022/12/04 03:45:58;;;;;;;19.55;8.63;;;1.20;99.90;;;;;;5070811;28;20045;-73
2022/12/04 03:48:45;;;;;;;24.15;10.50;;;1.30;99.90;;;;;;5053714;28;20059;-73
2022/12/04 03:51:26;;;;;;;21.42;8.77;;;1.20;99.90;;;;;;5068806;28;20035;-73
2022/12/04 03:53:58;;;;;;;17.13;8.85;;;1.20;99.90;;;;;;5070417;28;20504;-73
2022/12/04 03:56:39;;;;;;;33.38;10.13;;;1.20;99.90;;;;;;5051633;28;20036;-73
2022/12/04 03:59:11;;;;;;;23.73;9.40;;;1.20;99.90;;;;;;5070111;28;20033;-73
2022/12/04 04:01:46;;;;;;;26.10;11.10;;;1.30;99.90;;;;;;5076993;28;20508;-73
2022/12/04 04:04:18;;;;;;;20.88;9.25;;;1.30;99.90;;;;;;5078597;28;20416;-73
2022/12/04 04:07:00;;;;;;;22.95;8.52;;;1.30;99.90;;;;;;5069838;28;20043;-73
2022/12/04 04:09:33;;;;;;;23.33;9.30;;;1.30;99.90;;;;;;5074858;28;20032;-73
2022/12/04 04:12:07;;;;;;;26.00;12.15;;;1.20;99.90;;;;;;5079608;28;20040;-74
2022/12/04 04:26:17;;;;;;;18.48;8.40;;;1.20;99.90;;;;;;5073501;28;20740;-73
2022/12/04 04:28:43;;;;;;;23.92;9.75;;;1.20;99.90;;;;;;5063661;28;20040;-73
2022/12/04 04:31:23;;;;;;;21.73;10.20;;;1.20;99.90;;;;;;5072170;28;20071;-73
2022/12/04 04:34:19;;;;;;;24.63;9.75;;;1.20;99.90;;;;;;5064222;28;20048;-73
2022/12/04 04:36:57;;;;;;;21.23;9.63;;;1.20;99.90;;;;;;5065199;28;20060;-73
2022/12/04 04:39:33;;;;;;;25.20;10.40;;;1.20;99.90;;;;;;5066665;28;20048;-73
2022/12/04 04:42:11;;;;;;;20.13;10.55;;;1.20;99.90;;;;;;5070173;28;20410;-73
2022/12/04 04:44:46;;;;;;;18.92;8.35;;;1.20;99.90;;;;;;5075011;28;20040;-73
2022/12/04 04:47:23;;;;;;;24.63;9.18;;;1.20;99.90;;;;;;5058096;28;20037;-73
2022/12/04 04:49:53;;;;;;;20.05;8.27;;;1.20;99.90;;;;;;5079541;28;20455;-74
2022/12/04 04:52:22;;;;;;;21.90;9.13;;;1.20;99.90;;;;;;5072966;28;20037;-73
2022/12/04 04:54:47;;;;;;;25.38;9.05;;;1.30;99.90;;;;;;5062955;28;20158;-73
2022/12/04 04:57:31;;;;;;;19.05;7.97;;;1.30;99.90;;;;;;5070661;28;20505;-73
2022/12/04 04:59:57;;;;;;;23.13;8.73;;;1.30;99.90;;;;;;5073200;28;20536;-73
2022/12/04 05:02:25;;;;;;;25.92;10.85;;;1.30;99.90;;;;;;5080886;28;20056;-73
2022/12/04 05:04:51;;;;;;;21.58;7.90;;;1.30;99.90;;;;;;5073156;28;20049;-73
2022/12/04 05:07:16;;;;;;;26.98;11.00;;;1.30;99.90;;;;;;5071847;28;20123;-73
2022/12/04 05:09:42;;;;;;;23.25;10.15;;;1.20;99.90;;;;;;5078102;28;20051;-73
2022/12/04 05:12:08;;;;;;;26.85;9.68;;;1.20;99.90;;;;;;5085341;28;20068;-73
2022/12/04 05:14:33;;;;;;;27.90;10.48;;;1.20;99.90;;;;;;5071635;28;20504;-73
2022/12/04 05:16:59;;;;;;;22.67;9.48;;;1.20;99.90;;;;;;5083840;28;20037;-73
2022/12/04 05:22:09;;;;;;;17.75;9.48;;;1.20;99.90;;;;;;5071529;28;20048;-73
2022/12/04 05:24:34;;;;;;;18.48;8.10;;;1.20;99.90;;;;;;5077748;28;20097;-73
2022/12/04 05:27:00;;;;;;;22.63;10.45;;;1.20;99.90;;;;;;5066152;28;20531;-73
2022/12/04 05:29:26;;;;;;;25.08;9.73;;;1.20;99.90;;;;;;5074725;28;20043;-73
2022/12/04 05:31:51;;;;;;;25.00;10.10;;;1.20;99.90;;;;;;5084091;28;20054;-73
2022/12/04 05:34:17;;;;;;;19.83;9.15;;;1.20;99.90;;;;;;5057355;28;20060;-73
2022/12/04 05:36:42;;;;;;;19.75;7.57;;;1.20;99.90;;;;;;5078413;28;20027;-73
2022/12/04 05:39:08;;;;;;;18.20;8.35;;;1.30;99.90;;;;;;5063141;28;20040;-73
2022/12/04 05:41:33;;;;;;;17.15;8.52;;;1.30;99.90;;;;;;5081296;28;20036;-73
2022/12/04 05:43:59;;;;;;;15.43;8.27;;;1.20;99.90;;;;;;5060922;28;20089;-73
2022/12/04 05:46:24;;;;;;;15.45;7.95;;;1.20;99.90;;;;;;5066383;28;20068;-73
2022/12/04 05:48:50;;;;;;;23.27;9.35;;;1.20;99.90;;;;;;5076869;28;20043;-73
2022/12/04 05:51:16;;;;;;;20.70;9.55;;;1.20;99.90;;;;;;5053569;28;20041;-73
2022/12/04 05:53:41;;;;;;;18.13;7.32;;;1.20;99.90;;;;;;5079932;28;20036;-73
2022/12/04 05:56:07;;;;;;;20.38;9.00;;;1.20;99.90;;;;;;5082787;28;20047;-73
2022/12/04 05:58:35;;;;;;;19.77;6.72;;;1.20;99.90;;;;;;5060042;28;20071;-73
2022/12/04 06:01:10;;;;;;;22.55;9.50;;;1.20;99.90;;;;;;5075170;28;20036;-73
2022/12/04 06:03:36;;;;;;;22.98;9.23;;;1.20;99.90;;;;;;5079666;28;20044;-73
2022/12/04 06:06:03;;;;;;;27.48;10.77;;;1.20;99.90;;;;;;5073600;28;20055;-73
2022/12/04 06:08:29;;;;;;;17.73;8.00;;;1.20;99.90;;;;;;5050864;28;20040;-73
2022/12/04 06:10:55;;;;;;;23.85;8.10;;;1.20;99.90;;;;;;5080410;28;20477;-73
2022/12/04 06:13:20;;;;;;;23.52;9.20;;;1.20;99.90;;;;;;5053786;28;20114;-73
2022/12/04 06:15:46;;;;;;;19.00;7.90;;;1.20;99.90;;;;;;5077012;28;20057;-73
2022/12/04 06:18:12;;;;;;;19.25;8.68;;;1.20;99.90;;;;;;5077662;28;20100;-73
2022/12/04 06:20:37;;;;;;;24.73;9.43;;;1.20;99.90;;;;;;5067860;28;20083;-73
2022/12/04 06:23:03;;;;;;;23.45;11.27;;;1.20;99.90;;;;;;5064254;28;20044;-73
2022/12/04 06:25:28;;;;;;;21.73;9.77;;;1.30;99.90;;;;;;5073167;28;20036;-73
2022/12/04 06:27:54;;;;;;;21.73;8.02;;;1.30;99.90;;;;;;5060148;28;20123;-73
2022/12/04 06:30:20;;;;;;;23.30;8.10;;;1.30;99.90;;;;;;5074152;28;20489;-73
2022/12/04 06:32:45;;;;;;;19.75;8.75;;;1.30;99.90;;;;;;5057684;28;20183;-73
2022/12/04 06:35:11;;;;;;;20.42;9.57;;;1.20;99.90;;;;;;5056633;28;20037;-73
2022/12/04 06:37:36;;;;;;;17.00;7.45;;;1.20;99.90;;;;;;5082286;28;20043;-73
2022/12/04 06:40:02;;;;;;;18.80;8.32;;;1.20;99.90;;;;;;5070361;28;20207;-73
2022/12/04 06:42:28;;;;;;;20.42;9.50;;;1.10;99.90;;;;;;5073636;28;20064;-73
2022/12/04 06:44:54;;;;;;;22.40;8.55;;;1.20;99.90;;;;;;5081998;28;20381;-73
2022/12/04 06:47:19;;;;;;;22.88;8.77;;;1.10;99.90;;;;;;5083152;28;20036;-73
2022/12/04 06:49:49;;;;;;;20.85;8.35;;;1.10;99.90;;;;;;5072102;28;20115;-73
2022/12/04 06:52:14;;;;;;;20.85;8.43;;;1.10;99.90;;;;;;5069781;28;20045;-73
2022/12/04 06:54:40;;;;;;;29.58;10.25;;;1.10;99.90;;;;;;5079673;28;20421;-73
2022/12/04 06:57:05;;;;;;;22.63;7.78;;;1.10;99.90;;;;;;5081747;28;20063;-73
2022/12/04 06:59:32;;;;;;;17.23;8.10;;;1.10;99.90;;;;;;5079749;28;20128;-73
2022/12/04 07:01:58;;;;;;;21.73;8.38;;;1.10;99.90;;;;;;5058549;28;20063;-73
2022/12/04 07:04:23;;;;;;;19.88;8.95;;;1.10;99.90;;;;;;5073319;28;20470;-73
2022/12/04 07:06:49;;;;;;;15.25;7.88;;;1.10;99.90;;;;;;5070997;28;20493;-73
2022/12/04 07:09:16;;;;;;;16.75;7.60;;;1.10;99.90;;;;;;5078023;28;20405;-73
2022/12/04 07:11:43;;;;;;;21.65;7.80;;;1.10;99.90;;;;;;5082174;28;20045;-73
2022/12/04 07:14:09;;;;;;;17.83;8.13;;;1.10;99.90;;;;;;5082840;28;20044;-73
2022/12/04 07:16:35;;;;;;;20.50;7.47;;;1.10;99.90;;;;;;5079760;28;20081;-73
2022/12/04 07:19:01;;;;;;;20.90;8.90;;;1.10;99.90;;;;;;5055636;28;20129;-73
2022/12/04 07:21:30;;;;;;;18.65;8.20;;;1.10;99.90;;;;;;5075508;28;20047;-73
2022/12/04 07:23:58;;;;;;;21.55;11.68;;;1.10;99.90;;;;;;5076855;28;20134;-73
2022/12/04 07:26:25;;;;;;;20.27;8.27;;;1.10;99.90;;;;;;5080625;28;20074;-73
2022/12/04 07:28:51;;;;;;;17.00;7.72;;;1.10;99.90;;;;;;5060116;28;20036;-73
2022/12/04 07:31:19;;;;;;;21.92;9.27;;;1.10;99.90;;;;;;5070515;28;20060;-73
2022/12/04 07:33:45;;;;;;;18.70;8.38;;;1.10;99.90;;;;;;5072741;28;20064;-73
2022/12/04 07:36:14;;;;;;;21.35;8.02;;;1.10;99.90;;;;;;5072361;28;20036;-73
2022/12/04 07:38:40;;;;;;;24.88;9.98;;;1.10;99.90;;;;;;5074225;28;20127;-73
2022/12/04 07:41:06;;;;;;;22.52;8.02;;;1.10;99.90;;;;;;5067941;28;20552;-73
2022/12/04 07:43:33;;;;;;;20.67;9.30;;;1.10;99.90;;;;;;5065355;28;20395;-73
2022/12/04 07:46:08;;;;;;;20.15;8.77;;;1.10;99.90;;;;;;5064086;28;20040;-73
2022/12/04 07:48:33;;;;;;;23.40;7.57;;;1.10;99.90;;;;;;5068889;28;20044;-73
2022/12/04 07:51:07;;;;;;;23.52;7.75;;;1.10;99.90;;;;;;5060047;28;20037;-73
2022/12/04 07:53:34;;;;;;;26.38;9.70;;;1.20;99.90;;;;;;5072387;28;20032;-73
2022/12/04 07:56:00;;;;;;;20.08;8.10;;;1.10;99.90;;;;;;5074574;28;20170;-73
2022/12/04 07:58:26;;;;;;;18.67;7.07;;;1.10;99.90;;;;;;5061511;28;20032;-73
2022/12/04 08:00:52;;;;;;;28.25;10.27;;;1.10;99.90;;;;;;5071963;28;20039;-73
2022/12/04 08:03:17;;;;;;;22.10;8.90;;;1.20;99.90;;;;;;5054572;28;20064;-73
2022/12/04 08:05:43;;;;;;;20.17;9.20;;;1.10;99.90;;;;;;5058879;28;20047;-74
2022/12/04 08:08:08;;;;;;;18.20;6.72;;;1.10;99.90;;;;;;5060841;28;20040;-73
2022/12/04 08:10:34;;;;;;;26.58;9.55;;;1.10;99.90;;;;;;5066720;28;20058;-73
2022/12/04 08:12:59;;;;;;;18.58;7.90;;;1.10;99.90;;;;;;5065359;28;20144;-73
2022/12/04 08:15:25;;;;;;;17.15;7.78;;;1.10;99.90;;;;;;5064552;28;20043;-73
2022/12/04 08:17:51;;;;;;;26.45;10.80;;;1.10;99.90;;;;;;5062422;28;20044;-73
2022/12/04 08:20:16;;;;;;;21.00;8.45;;;1.10;99.90;;;;;;5068444;28;20040;-73
2022/12/04 08:22:42;;;;;;;17.75;7.95;;;1.10;99.90;;;;;;5063983;28;20045;-73
2022/12/04 08:25:08;;;;;;;19.77;9.02;;;1.10;99.90;;;;;;5073841;28;20042;-73
2022/12/04 08:27:33;;;;;;;20.95;8.20;;;1.10;99.90;;;;;;5068929;28;20116;-73
2022/12/04 08:29:59;;;;;;;18.25;7.45;;;1.10;99.90;;;;;;5074725;28;20241;-74
2022/12/04 08:32:24;;;;;;;28.40;9.45;;;1.10;99.90;;;;;;5070938;28;20076;-73
2022/12/04 08:34:53;;;;;;;20.55;9.07;;;1.10;99.90;;;;;;5064590;28;20040;-74
2022/12/04 08:37:18;;;;;;;22.75;8.27;;;1.20;99.90;;;;;;5079931;28;20031;-73
2022/12/04 08:39:45;;;;;;;30.27;11.25;;;1.10;99.90;;;;;;5075907;28;20505;-74
2022/12/04 08:42:10;;;;;;;20.15;7.20;;;1.20;99.90;;;;;;5084102;28;20048;-74
2022/12/04 08:44:36;;;;;;;17.92;7.90;;;1.20;99.90;;;;;;5075989;28;20040;-73
2022/12/04 08:47:01;;;;;;;30.08;9.63;;;1.20;99.90;;;;;;5078135;28;20128;-73
2022/12/04 08:49:27;;;;;;;18.95;8.32;;;1.20;99.90;;;;;;5057736;28;20075;-73
2022/12/04 08:51:52;;;;;;;18.25;7.80;;;1.20;99.90;;;;;;5064887;28;20032;-73
2022/12/04 08:54:18;;;;;;;20.65;7.65;;;1.20;99.90;;;;;;5074700;28;20150;-74
2022/12/04 08:56:44;;;;;;;18.42;7.57;;;1.20;99.90;;;;;;5076673;28;20399;-74
2022/12/04 08:59:11;;;;;;;17.70;8.10;;;1.20;99.90;;;;;;5082466;28;20102;-74
2022/12/04 09:01:37;;;;;;;23.60;7.40;;;1.30;99.90;;;;;;5082149;28;20122;-73
2022/12/04 09:04:03;;;;;;;21.17;8.68;;;1.20;99.90;;;;;;5063416;28;20119;-73
2022/12/04 09:06:29;;;;;;;21.48;8.57;;;1.30;99.90;;;;;;5070963;28;20045;-73
2022/12/04 09:08:55;;;;;;;23.35;9.05;;;1.30;99.90;;;;;;5074249;28;20077;-73
2022/12/04 09:11:23;;;;;;;20.05;8.27;;;1.30;99.90;;;;;;5055963;28;20047;-73
2022/12/04 09:13:49;;;;;;;20.10;8.20;;;1.30;99.90;;;;;;5063466;28;20052;-73
2022/12/04 09:16:18;;;;;;;24.83;8.07;;;1.30;99.90;;;;;;5075951;28;20031;-74
2022/12/04 09:18:44;;;;;;;16.95;7.45;;;1.30;99.90;;;;;;5082206;28;20552;-73
2022/12/04 09:21:13;;;;;;;19.73;7.25;;;1.40;99.90;;;;;;5074909;28;20036;-73
2022/12/04 09:23:39;;;;;;;22.13;9.35;;;1.40;99.90;;;;;;5057442;28;20732;-74
2022/12/04 09:26:17;;;;;;;18.27;8.57;;;1.40;99.90;;;;;;5058153;28;20044;-74
2022/12/04 09:28:43;;;;;;;20.35;9.13;;;1.40;99.90;;;;;;5062091;28;20068;-75
2022/12/04 09:31:08;;;;;;;17.63;7.53;;;1.40;99.90;;;;;;5072746;28;20117;-76
2022/12/04 09:33:34;;;;;;;25.52;9.10;;;1.40;99.90;;;;;;5072193;28;20096;-74
2022/12/04 09:36:02;;;;;;;16.40;6.20;;;1.40;99.90;;;;;;5052278;28;20115;-74
2022/12/04 09:38:28;;;;;;;22.20;8.80;;;1.40;99.90;;;;;;5074915;28;20390;-74
2022/12/04 09:41:17;;;;;;;21.63;7.20;;;1.40;99.90;;;;;;5065081;28;20075;-75
2022/12/04 09:43:51;;;;;;;21.80;7.45;;;1.40;99.90;;;;;;5066693;28;20097;-73
2022/12/04 09:46:28;;;;;;;20.33;7.53;;;1.40;99.90;;;;;;5050481;28;20044;-74
2022/12/04 09:48:57;;;;;;;15.70;7.97;;;1.40;99.90;;;;;;5047383;28;20531;-74
2022/12/04 09:51:25;;;;;;;24.67;7.25;;;1.50;99.90;;;;;;5067740;28;20905;-74
2022/12/04 09:53:56;;;;;;;15.68;7.88;;;1.50;99.90;;;;;;5063703;28;20032;-74
2022/12/04 09:56:26;;;;;;;20.15;8.15;;;1.70;99.90;;;;;;5056706;28;20118;-74
2022/12/04 09:59:13;;;;;;;23.48;8.05;;;1.50;99.90;;;;;;5054117;28;20076;-74
2022/12/04 10:01:46;;;;;;;14.48;6.70;;;1.60;99.90;;;;;;5065208;28;20692;-74
2022/12/04 10:04:13;;;;;;;15.02;7.68;;;1.60;99.90;;;;;;5072449;28;20041;-74
2022/12/04 10:07:01;;;;;;;23.95;9.15;;;1.60;99.90;;;;;;5073856;28;20123;-74
2022/12/04 10:10:05;;;;;;;22.55;8.50;;;1.60;99.90;;;;;;5047866;28;20084;-74
2022/12/04 10:12:56;;;;;;;15.38;6.82;;;1.60;99.90;;;;;;5074408;28;20091;-74
2022/12/04 10:15:52;;;;;;;20.27;6.90;;;1.70;99.90;;;;;;5078124;28;20054;-74
2022/12/04 10:18:31;;;;;;;18.95;8.20;;;1.70;99.90;;;;;;5038646;28;20406;-74
2022/12/04 10:21:21;;;;;;;19.52;7.22;;;1.70;99.90;;;;;;5065780;28;20115;-74
2022/12/04 10:24:14;;;;;;;15.90;7.82;;;1.70;99.90;;;;;;5046946;28;20075;-74
2022/12/04 10:26:44;;;;;;;16.95;7.50;;;1.80;99.90;;;;;;5076569;28;20486;-74
2022/12/04 10:29:33;;;;;;;17.80;6.43;;;1.80;99.90;;;;;;5061061;28;20055;-74
2022/12/04 10:32:23;;;;;;;17.10;8.05;;;1.80;99.90;;;;;;5042721;28;20102;-74
2022/12/04 10:34:52;;;;;;;18.00;7.85;;;1.80;99.90;;;;;;5052668;28;20109;-74
2022/12/04 10:37:18;;;;;;;14.77;8.10;;;1.80;99.90;;;;;;5069312;28;20044;-73
2022/12/04 10:40:02;;;;;;;21.13;7.43;;;1.80;99.90;;;;;;5061487;28;20447;-74
2022/12/04 10:42:36;;;;;;;15.93;6.18;;;1.80;99.90;;;;;;5044003;28;20041;-74
2022/12/04 10:45:04;;;;;;;16.25;6.82;;;1.90;99.90;;;;;;5041229;28;20113;-74
2022/12/04 10:47:30;;;;;;;13.15;7.40;;;1.90;99.90;;;;;;5064991;28;20697;-73
2022/12/04 10:50:00;;;;;;;17.95;6.65;;;1.90;99.90;;;;;;5033479;28;20040;-73
2022/12/04 10:52:26;;;;;;;15.18;8.70;;;1.90;99.90;;;;;;5065654;28;20059;-74
2022/12/04 10:54:58;;;;;;;21.77;7.32;;;2.00;99.90;;;;;;5062159;28;20494;-73
2022/12/04 10:57:38;;;;;;;14.15;6.45;;;2.00;99.90;;;;;;5075114;28;20481;-74
2022/12/04 11:00:31;;;;;;;14.52;7.03;;;2.00;99.90;;;;;;5069576;28;20041;-73
2022/12/04 11:03:00;;;;;;;18.70;7.90;;;2.00;99.90;;;;;;5078875;28;20212;-74
2022/12/04 11:05:44;;;;;;;15.82;6.38;;;2.10;99.90;;;;;;5046427;28;20033;-74
2022/12/04 11:08:22;;;;;;;11.15;5.55;;;2.10;99.90;;;;;;5074335;28;20393;-74
2022/12/04 11:11:00;;;;;;;16.90;5.55;;;2.10;99.90;;;;;;5062360;28;20452;-73
2022/12/04 11:13:26;;;;;;;13.00;5.82;;;2.10;99.90;;;;;;5068186;28;20405;-74
2022/12/04 11:15:54;;;;;;;10.50;5.97;;;2.20;99.90;;;;;;5065730;28;20493;-74
2022/12/04 11:18:30;;;;;;;13.75;4.90;;;2.20;99.90;;;;;;5074927;28;20032;-74
2022/12/04 11:21:03;;;;;;;14.90;6.13;;;2.20;99.90;;;;;;5061906;28;20040;-73
2022/12/04 11:23:45;;;;;;;14.90;5.65;;;2.20;99.90;;;;;;5077538;28;20040;-73
2022/12/04 11:26:12;;;;;;;13.27;7.40;;;2.20;99.90;;;;;;5069456;28;20410;-74
2022/12/04 11:28:42;;;;;;;18.20;6.82;;;2.20;99.90;;;;;;5065703;28;20083;-73
2022/12/04 11:31:09;;;;;;;11.82;5.72;;;2.30;99.90;;;;;;5062655;28;20091;-74
2022/12/04 11:33:44;;;;;;;12.98;5.32;;;2.30;99.90;;;;;;5034594;28;20055;-74
2022/12/04 11:36:33;;;;;;;12.88;6.05;;;2.30;99.90;;;;;;5070113;28;20040;-74
2022/12/04 11:39:10;;;;;;;13.88;6.20;;;2.30;99.90;;;;;;5054306;28;20044;-74
2022/12/04 11:41:36;;;;;;;9.70;4.18;;;2.30;99.90;;;;;;5062809;28;20181;-75
2022/12/04 11:44:04;;;;;;;13.32;6.30;;;2.30;99.90;;;;;;5069479;28;20068;-74
2022/12/04 11:46:32;;;;;;;12.65;5.95;;;2.30;99.90;;;;;;5055491;28;20548;-74
2022/12/04 11:48:59;;;;;;;14.38;4.57;;;2.30;99.90;;;;;;5062801;28;20048;-74
2022/12/04 11:51:27;;;;;;;12.63;6.22;;;2.30;99.90;;;;;;5037119;28;20550;-74
2022/12/04 11:54:10;;;;;;;18.73;8.93;;;2.30;99.90;;;;;;5071472;28;20049;-74
2022/12/04 11:56:46;;;;;;;11.20;5.60;;;2.30;99.90;;;;;;5050883;28;20037;-73
2022/12/04 11:59:25;;;;;;;12.88;5.78;;;2.30;99.90;;;;;;5055048;28;20479;-73
2022/12/04 12:02:07;;;;;;;12.27;5.25;;;2.30;99.90;;;;;;5077754;28;20039;-74
2022/12/04 12:05:03;;;;;;;16.23;6.82;;;2.30;99.90;;;;;;5055559;28;20049;-73
2022/12/04 12:07:49;;;;;;;15.18;6.05;;;2.30;99.90;;;;;;5055461;28;20389;-74
2022/12/04 12:10:21;;;;;;;11.52;5.70;;;2.30;99.90;;;;;;5063444;28;20036;-74
2022/12/04 12:13:24;;;;;;;17.83;6.78;;;2.40;99.90;;;;;;5070282;28;20072;-73
2022/12/04 12:16:19;;;;;;;12.98;5.78;;;2.30;99.90;;;;;;5036687;28;20049;-74
2022/12/04 12:19:28;;;;;;;14.23;6.57;;;2.40;99.90;;;;;;5050102;28;20375;-74
2022/12/04 12:21:56;;;;;;;9.75;4.97;;;2.40;99.90;;;;;;5046031;28;20047;-73
2022/12/04 12:24:34;;;;;;;11.48;4.82;;;2.40;99.90;;;;;;5039611;28;20909;-74
2022/12/04 12:27:36;;;;;;;10.55;3.92;;;2.40;99.90;;;;;;5053085;28;20503;-73
2022/12/04 12:30:20;;;;;;;11.75;6.63;;;2.40;99.90;;;;;;5039740;28;20048;-74
2022/12/04 12:33:09;;;;;;;15.13;6.25;;;2.40;99.90;;;;;;5052704;28;20041;-74
2022/12/04 12:35:43;;;;;;;12.60;5.10;;;2.40;99.90;;;;;;5039344;28;20045;-74
2022/12/04 12:38:28;;;;;;;11.63;5.38;;;2.40;99.90;;;;;;5033318;28;20088;-73
2022/12/04 12:41:10;;;;;;;10.63;5.10;;;2.40;99.90;;;;;;5051902;28;20111;-74
2022/12/04 12:43:38;;;;;;;9.93;4.70;;;2.40;99.90;;;;;;5031618;28;20131;-73
2022/12/04 12:46:06;;;;;;;12.82;5.72;;;2.50;99.90;;;;;;5030052;28;20057;-74
2022/12/04 12:48:39;;;;;;;9.57;4.32;;;2.50;99.90;;;;;;5047462;28;20041;-73
2022/12/04 12:51:36;;;;;;;15.77;4.95;;;2.50;99.90;;;;;;5031034;28;20423;-73
2022/12/04 12:54:17;;;;;;;11.38;5.07;;;2.50;99.90;;;;;;5025242;28;20167;-77
2022/12/04 12:56:51;;;;;;;10.90;5.70;;;2.50;99.90;;;;;;5042236;28;20052;-74
2022/12/04 12:59:22;;;;;;;11.90;5.65;;;2.50;99.90;;;;;;5049472;28;20175;-74
2022/12/04 13:02:11;;;;;;;7.88;4.65;;;2.50;99.90;;;;;;5057328;28;20038;-74
2022/12/04 13:04:40;;;;;;;8.80;3.97;;;2.50;99.90;;;;;;5027586;28;20068;-74
2022/12/04 13:07:43;;;;;;;18.35;6.50;;;2.50;99.90;;;;;;5027687;28;20573;-74
2022/12/04 13:10:19;;;;;;;16.70;6.93;;;2.50;99.90;;;;;;5028315;28;20047;-74
2022/12/04 13:12:59;;;;;;;13.50;5.28;;;2.50;99.90;;;;;;5061636;28;20532;-74
2022/12/04 13:15:51;;;;;;;16.30;7.75;;;2.50;99.90;;;;;;5047408;28;20041;-74
2022/12/04 13:18:26;;;;;;;11.48;4.47;;;2.60;99.90;;;;;;5068010;28;20070;-74
2022/12/04 13:20:56;;;;;;;12.95;5.03;;;2.60;99.90;;;;;;5042984;28;20041;-74
2022/12/04 13:23:28;;;;;;;13.85;5.25;;;2.50;99.90;;;;;;5048656;28;20106;-74
2022/12/04 13:26:31;;;;;;;10.18;5.57;;;2.50;99.90;;;;;;5066580;28;20044;-74